sensor_id;sensor_type;location;lat;lon;timestamp;pressure;altitude;pressure_sealevel;temperature;humidity
6899;BME280;3488;42.616;23.350;2023-05-22T00:02:18;63465.91;;;14.16;98.30
6899;BME280;3488;42.616;23.350;2023-05-22T00:04:49;63466.44;;;14.19;98.25
6899;BME280;3488;42.616;23.350;2023-05-22T00:07:17;63485.16;;;14.37;98.12
6899;BME280;3488;42.616;23.350;2023-05-22T00:09:45;63480.00;;;14.34;99.55
6899;BME280;3488;42.616;23.350;2023-05-22T00:12:12;63495.59;;;14.49;97.98
6899;BME280;3488;42.616;23.350;2023-05-22T00:14:39;63496.66;;;14.53;98.21
6899;BME280;3488;42.616;23.350;2023-05-22T00:17:06;63480.03;;;14.37;99.41
6899;BME280;3488;42.616;23.350;2023-05-22T00:19:34;63479.03;;;14.38;100.00
6899;BME280;3488;42.616;23.350;2023-05-22T00:22:04;63477.44;;;14.34;100.00
6899;BME280;3488;42.616;23.350;2023-05-22T00:24:31;63487.28;;;14.41;100.00
6899;BME280;3488;42.616;23.350;2023-05-22T00:26:59;63487.31;;;14.44;100.00
6899;BME280;3488;42.616;23.350;2023-05-22T00:29:26;63502.88;;;14.56;100.00
6899;BME280;3488;42.616;23.350;2023-05-22T00:31:53;63508.06;;;14.61;100.00
6899;BME280;3488;42.616;23.350;2023-05-22T00:34:21;63515.81;;;14.66;100.00
6899;BME280;3488;42.616;23.350;2023-05-22T00:36:48;63509.09;;;14.62;100.00
6899;BME280;3488;42.616;23.350;2023-05-22T00:39:16;63492.97;;;14.47;100.00
6899;BME280;3488;42.616;23.350;2023-05-22T00:41:43;63487.75;;;14.39;100.00
6899;BME280;3488;42.616;23.350;2023-05-22T00:44:10;63476.38;;;14.31;100.00
6899;BME280;3488;42.616;23.350;2023-05-22T00:46:37;63468.03;;;14.23;100.00
6899;BME280;3488;42.616;23.350;2023-05-22T00:49:05;63481.53;;;14.33;100.00
6899;BME280;3488;42.616;23.350;2023-05-22T00:51:32;63486.78;;;14.43;100.00
6899;BME280;3488;42.616;23.350;2023-05-22T00:53:59;63502.28;;;14.53;100.00
6899;BME280;3488;42.616;23.350;2023-05-22T00:56:28;63472.25;;;14.29;100.00
6899;BME280;3488;42.616;23.350;2023-05-22T00:58:55;63451.94;;;14.05;100.00
6899;BME280;3488;42.616;23.350;2023-05-22T01:01:22;63463.84;;;14.16;100.00
6899;BME280;3488;42.616;23.350;2023-05-22T01:03:51;63471.13;;;14.23;100.00
6899;BME280;3488;42.616;23.350;2023-05-22T01:06:18;63465.47;;;14.23;100.00
6899;BME280;3488;42.616;23.350;2023-05-22T01:08:46;63461.81;;;14.17;100.00
6899;BME280;3488;42.616;23.350;2023-05-22T01:11:18;63456.09;;;14.11;100.00
6899;BME280;3488;42.616;23.350;2023-05-22T01:13:55;63461.28;;;14.16;100.00
6899;BME280;3488;42.616;23.350;2023-05-22T01:16:31;63458.19;;;14.13;100.00
6899;BME280;3488;42.616;23.350;2023-05-22T01:19:11;63462.78;;;14.13;100.00
6899;BME280;3488;42.616;23.350;2023-05-22T01:21:48;63459.75;;;14.17;100.00
6899;BME280;3488;42.616;23.350;2023-05-22T01:24:48;63452.50;;;14.10;100.00
6899;BME280;3488;42.616;23.350;2023-05-22T01:27:33;63454.06;;;14.12;100.00
6899;BME280;3488;42.616;23.350;2023-05-22T01:33:20;63450.41;;;14.06;100.00
6899;BME280;3488;42.616;23.350;2023-05-22T01:35:51;63450.88;;;14.04;100.00
6899;BME280;3488;42.616;23.350;2023-05-22T01:38:19;63440.00;;;13.96;100.00
6899;BME280;3488;42.616;23.350;2023-05-22T01:40:46;63421.91;;;13.83;100.00
6899;BME280;3488;42.616;23.350;2023-05-22T01:43:14;63418.25;;;13.77;100.00
6899;BME280;3488;42.616;23.350;2023-05-22T01:45:42;63421.31;;;13.77;100.00
6899;BME280;3488;42.616;23.350;2023-05-22T01:48:08;63410.47;;;13.69;100.00
6899;BME280;3488;42.616;23.350;2023-05-22T01:50:38;63410.91;;;13.65;100.00
6899;BME280;3488;42.616;23.350;2023-05-22T01:53:10;63376.22;;;13.36;100.00
6899;BME280;3488;42.616;23.350;2023-05-22T01:55:45;63388.63;;;13.46;100.00
6899;BME280;3488;42.616;23.350;2023-05-22T01:58:28;63377.75;;;13.35;100.00
6899;BME280;3488;42.616;23.350;2023-05-22T02:00:59;63374.63;;;13.32;100.00
6899;BME280;3488;42.616;23.350;2023-05-22T02:03:30;63372.06;;;13.32;100.00
6899;BME280;3488;42.616;23.350;2023-05-22T02:06:02;63373.53;;;13.29;100.00
6899;BME280;3488;42.616;23.350;2023-05-22T02:08:32;63369.47;;;13.30;100.00
6899;BME280;3488;42.616;23.350;2023-05-22T02:11:02;63359.63;;;13.20;100.00
6899;BME280;3488;42.616;23.350;2023-05-22T02:13:30;63348.69;;;13.07;100.00
6899;BME280;3488;42.616;23.350;2023-05-22T02:15:57;63344.03;;;13.03;100.00
6899;BME280;3488;42.616;23.350;2023-05-22T02:18:25;63344.53;;;13.03;100.00
6899;BME280;3488;42.616;23.350;2023-05-22T02:20:54;63338.25;;;12.95;100.00
6899;BME280;3488;42.616;23.350;2023-05-22T02:23:23;63329.50;;;12.91;100.00
6899;BME280;3488;42.616;23.350;2023-05-22T02:25:51;63315.50;;;12.75;100.00
6899;BME280;3488;42.616;23.350;2023-05-22T02:28:20;63317.53;;;12.77;100.00
6899;BME280;3488;42.616;23.350;2023-05-22T02:30:47;63326.34;;;12.83;100.00
6899;BME280;3488;42.616;23.350;2023-05-22T02:33:14;63319.13;;;12.78;100.00
6899;BME280;3488;42.616;23.350;2023-05-22T02:35:43;63327.88;;;12.85;100.00
6899;BME280;3488;42.616;23.350;2023-05-22T02:38:10;63296.34;;;12.59;100.00
6899;BME280;3488;42.616;23.350;2023-05-22T02:40:39;63292.72;;;12.55;100.00
6899;BME280;3488;42.616;23.350;2023-05-22T02:43:06;63293.66;;;12.51;100.00
6899;BME280;3488;42.616;23.350;2023-05-22T02:45:34;63293.72;;;12.54;100.00
6899;BME280;3488;42.616;23.350;2023-05-22T02:48:01;63292.66;;;12.53;100.00
6899;BME280;3488;42.616;23.350;2023-05-22T02:50:28;63294.22;;;12.54;100.00
6899;BME280;3488;42.616;23.350;2023-05-22T02:52:56;63293.66;;;12.51;100.00
6899;BME280;3488;42.616;23.350;2023-05-22T02:55:23;63285.38;;;12.43;100.00
6899;BME280;3488;42.616;23.350;2023-05-22T02:57:51;63282.81;;;12.43;100.00
6899;BME280;3488;42.616;23.350;2023-05-22T03:00:19;63282.28;;;12.43;100.00
6899;BME280;3488;42.616;23.350;2023-05-22T03:02:46;63282.81;;;12.43;100.00
6899;BME280;3488;42.616;23.350;2023-05-22T03:05:14;63288.56;;;12.51;100.00
6899;BME280;3488;42.616;23.350;2023-05-22T03:07:42;63290.63;;;12.53;100.00
6899;BME280;3488;42.616;23.350;2023-05-22T03:10:09;63300.91;;;12.56;100.00
6899;BME280;3488;42.616;23.350;2023-05-22T03:12:37;63299.38;;;12.57;100.00
6899;BME280;3488;42.616;23.350;2023-05-22T03:15:06;63298.38;;;12.58;100.00
6899;BME280;3488;42.616;23.350;2023-05-22T03:17:34;63293.72;;;12.56;100.00
6899;BME280;3488;42.616;23.350;2023-05-22T03:20:01;63287.59;;;12.55;100.00
6899;BME280;3488;42.616;23.350;2023-05-22T03:22:29;63301.97;;;12.59;100.00
6899;BME280;3488;42.616;23.350;2023-05-22T03:24:56;63305.06;;;12.62;100.00
6899;BME280;3488;42.616;23.350;2023-05-22T03:27:23;63307.19;;;12.67;100.00
6899;BME280;3488;42.616;23.350;2023-05-22T03:29:50;63297.97;;;12.65;100.00
6899;BME280;3488;42.616;23.350;2023-05-22T03:32:19;63313.41;;;12.73;100.00
6899;BME280;3488;42.616;23.350;2023-05-22T03:34:46;63322.69;;;12.79;100.00
6899;BME280;3488;42.616;23.350;2023-05-22T03:37:13;63328.41;;;12.85;100.00
6899;BME280;3488;42.616;23.350;2023-05-22T03:39:41;63331.00;;;12.88;100.00
6899;BME280;3488;42.616;23.350;2023-05-22T03:42:08;63332.03;;;12.89;100.00
6899;BME280;3488;42.616;23.350;2023-05-22T03:44:38;63346.53;;;13.00;100.00
6899;BME280;3488;42.616;23.350;2023-05-22T03:47:05;63350.28;;;13.11;100.00
6899;BME280;3488;42.616;23.350;2023-05-22T03:49:33;63361.66;;;13.20;100.00
6899;BME280;3488;42.616;23.350;2023-05-22T03:52:02;63368.41;;;13.26;100.00
6899;BME280;3488;42.616;23.350;2023-05-22T03:54:29;63381.34;;;13.36;100.00
6899;BME280;3488;42.616;23.350;2023-05-22T03:56:57;63383.94;;;13.39;100.00
6899;BME280;3488;42.616;23.350;2023-05-22T03:59:24;63377.19;;;13.32;100.00
6899;BME280;3488;42.616;23.350;2023-05-22T04:01:52;63390.19;;;13.47;100.00
6899;BME280;3488;42.616;23.350;2023-05-22T04:04:22;63391.72;;;13.46;100.00
6899;BME280;3488;42.616;23.350;2023-05-22T04:06:52;63392.78;;;13.50;100.00
6899;BME280;3488;42.616;23.350;2023-05-22T04:09:25;63400.63;;;13.62;100.00
6899;BME280;3488;42.616;23.350;2023-05-22T04:11:52;63415.09;;;13.71;100.00
6899;BME280;3488;42.616;23.350;2023-05-22T04:14:20;63426.00;;;13.82;100.00
6899;BME280;3488;42.616;23.350;2023-05-22T04:16:47;63426.00;;;13.82;100.00
6899;BME280;3488;42.616;23.350;2023-05-22T04:19:14;63441.53;;;13.94;100.00
6899;BME280;3488;42.616;23.350;2023-05-22T04:21:42;63443.69;;;14.02;100.00
6899;BME280;3488;42.616;23.350;2023-05-22T04:24:11;63451.94;;;14.07;100.00
6899;BME280;3488;42.616;23.350;2023-05-22T04:26:38;63445.72;;;14.01;100.00
6899;BME280;3488;42.616;23.350;2023-05-22T04:29:08;63459.16;;;14.12;100.00
6899;BME280;3488;42.616;23.350;2023-05-22T04:31:38;63462.84;;;14.18;100.00
6899;BME280;3488;42.616;23.350;2023-05-22T04:34:06;63456.66;;;14.14;100.00
6899;BME280;3488;42.616;23.350;2023-05-22T04:36:39;63462.81;;;14.15;100.00
6899;BME280;3488;42.616;23.350;2023-05-22T04:39:10;63479.94;;;14.29;100.00
6899;BME280;3488;42.616;23.350;2023-05-22T04:41:39;63491.91;;;14.43;100.00
6899;BME280;3488;42.616;23.350;2023-05-22T04:44:06;63481.59;;;14.38;100.00
6899;BME280;3488;42.616;23.350;2023-05-22T04:46:34;63501.81;;;14.55;100.00
6899;BME280;3488;42.616;23.350;2023-05-22T04:49:02;63512.72;;;14.66;100.00
6899;BME280;3488;42.616;23.350;2023-05-22T04:51:29;63518.97;;;14.74;100.00
6899;BME280;3488;42.616;23.350;2023-05-22T04:53:57;63540.28;;;14.95;100.00
6899;BME280;3488;42.616;23.350;2023-05-22T04:56:25;63551.13;;;15.00;100.00
6899;BME280;3488;42.616;23.350;2023-05-22T04:58:52;63563.59;;;15.13;100.00
6899;BME280;3488;42.616;23.350;2023-05-22T05:01:20;63600.00;;;15.48;100.00
6899;BME280;3488;42.616;23.350;2023-05-22T05:03:47;63615.13;;;15.67;99.59
6899;BME280;3488;42.616;23.350;2023-05-22T05:06:15;63657.69;;;16.01;99.07
6899;BME280;3488;42.616;23.350;2023-05-22T05:08:42;63689.97;;;16.37;96.83
6899;BME280;3488;42.616;23.350;2023-05-22T05:11:13;63711.91;;;16.63;93.63
6899;BME280;3488;42.616;23.350;2023-05-22T05:13:44;63727.97;;;16.74;88.19
6899;BME280;3488;42.616;23.350;2023-05-22T05:16:11;63759.19;;;17.04;81.67
6899;BME280;3488;42.616;23.350;2023-05-22T05:18:39;63775.31;;;17.19;76.13
6899;BME280;3488;42.616;23.350;2023-05-22T05:21:06;63779.97;;;17.21;72.71
6899;BME280;3488;42.616;23.350;2023-05-22T05:23:33;63774.28;;;17.18;72.86
6899;BME280;3488;42.616;23.350;2023-05-22T05:26:01;63776.88;;;17.18;75.91
6899;BME280;3488;42.616;23.350;2023-05-22T05:28:31;63769.56;;;17.11;80.68
6899;BME280;3488;42.616;23.350;2023-05-22T05:31:00;63769.06;;;17.11;81.14
6899;BME280;3488;42.616;23.350;2023-05-22T05:33:27;63760.16;;;16.97;79.50
6899;BME280;3488;42.616;23.350;2023-05-22T05:35:54;63752.38;;;16.95;74.33
6899;BME280;3488;42.616;23.350;2023-05-22T05:38:24;63772.19;;;17.16;69.50
6899;BME280;3488;42.616;23.350;2023-05-22T05:40:51;63772.22;;;17.19;69.45
6899;BME280;3488;42.616;23.350;2023-05-22T05:43:19;63792.47;;;17.33;69.49
6899;BME280;3488;42.616;23.350;2023-05-22T05:45:46;63807.63;;;17.51;69.59
6899;BME280;3488;42.616;23.350;2023-05-22T05:48:17;63790.44;;;17.34;67.40
6899;BME280;3488;42.616;23.350;2023-05-22T05:50:44;63801.84;;;17.43;67.45
6899;BME280;3488;42.616;23.350;2023-05-22T05:53:11;63806.50;;;17.45;67.21
6899;BME280;3488;42.616;23.350;2023-05-22T05:55:38;63811.75;;;17.52;64.82
6899;BME280;3488;42.616;23.350;2023-05-22T05:58:05;63825.84;;;17.68;64.09
6899;BME280;3488;42.616;23.350;2023-05-22T06:00:32;63808.69;;;17.54;62.86
6899;BME280;3488;42.616;23.350;2023-05-22T06:03:01;63843.50;;;17.83;61.65
6899;BME280;3488;42.616;23.350;2023-05-22T06:05:32;63860.75;;;18.04;61.48
6899;BME280;3488;42.616;23.350;2023-05-22T06:08:00;63849.28;;;17.93;60.66
6899;BME280;3488;42.616;23.350;2023-05-22T06:10:28;63842.53;;;17.87;60.75
6899;BME280;3488;42.616;23.350;2023-05-22T06:12:56;63812.28;;;17.53;60.80
6899;BME280;3488;42.616;23.350;2023-05-22T06:15:23;63792.47;;;17.33;63.49
6899;BME280;3488;42.616;23.350;2023-05-22T06:17:50;63799.28;;;17.43;64.98
6899;BME280;3488;42.616;23.350;2023-05-22T06:20:17;63823.72;;;17.64;62.76
6899;BME280;3488;42.616;23.350;2023-05-22T06:22:45;63853.91;;;17.90;61.43
6899;BME280;3488;42.616;23.350;2023-05-22T06:25:13;63865.41;;;18.06;56.94
6899;BME280;3488;42.616;23.350;2023-05-22T06:27:40;63875.28;;;18.13;57.07
6899;BME280;3488;42.616;23.350;2023-05-22T06:30:08;63906.03;;;18.43;57.08
6899;BME280;3488;42.616;23.350;2023-05-22T06:32:35;63927.91;;;18.64;55.92
6899;BME280;3488;42.616;23.350;2023-05-22T06:35:02;63924.31;;;18.66;53.53
6899;BME280;3488;42.616;23.350;2023-05-22T06:37:30;63956.09;;;18.94;54.42
6899;BME280;3488;42.616;23.350;2023-05-22T06:40:02;63989.44;;;19.26;53.62
6899;BME280;3488;42.616;23.350;2023-05-22T06:42:29;64024.91;;;19.58;52.88
6899;BME280;3488;42.616;23.350;2023-05-22T06:44:56;64043.72;;;19.78;49.49
6899;BME280;3488;42.616;23.350;2023-05-22T06:47:26;64033.78;;;19.66;49.78
6899;BME280;3488;42.616;23.350;2023-05-22T06:49:53;64012.41;;;19.45;51.25
6899;BME280;3488;42.616;23.350;2023-05-22T06:52:21;64061.94;;;19.91;52.90
6899;BME280;3488;42.616;23.350;2023-05-22T06:54:48;64065.09;;;19.99;48.36
6899;BME280;3488;42.616;23.350;2023-05-22T06:57:16;64052.00;;;19.79;50.47
6899;BME280;3488;42.616;23.350;2023-05-22T06:59:44;64079.22;;;20.15;51.22
6899;BME280;3488;42.616;23.350;2023-05-22T07:02:11;64065.09;;;19.99;50.00
6899;BME280;3488;42.616;23.350;2023-05-22T07:04:38;64042.19;;;19.79;49.47
6899;BME280;3488;42.616;23.350;2023-05-22T07:07:06;64045.75;;;19.78;50.59
6899;BME280;3488;42.616;23.350;2023-05-22T07:09:34;64017.13;;;19.52;48.90
6899;BME280;3488;42.616;23.350;2023-05-22T07:12:02;63976.94;;;19.11;49.33
6899;BME280;3488;42.616;23.350;2023-05-22T07:14:30;64031.66;;;19.62;48.77
6899;BME280;3488;42.616;23.350;2023-05-22T07:16:58;64078.09;;;20.09;48.02
6899;BME280;3488;42.616;23.350;2023-05-22T07:19:26;64096.41;;;20.26;49.26
6899;BME280;3488;42.616;23.350;2023-05-22T07:21:53;64114.16;;;20.46;46.55
6899;BME280;3488;42.616;23.350;2023-05-22T07:24:20;64091.72;;;20.22;48.73
6899;BME280;3488;42.616;23.350;2023-05-22T07:26:47;64108.94;;;20.41;49.25
6899;BME280;3488;42.616;23.350;2023-05-22T07:29:14;64095.34;;;20.25;50.22
6899;BME280;3488;42.616;23.350;2023-05-22T07:31:42;64122.00;;;20.56;47.30
6899;BME280;3488;42.616;23.350;2023-05-22T07:34:10;64151.25;;;20.84;46.08
6899;BME280;3488;42.616;23.350;2023-05-22T07:36:37;64170.03;;;21.00;46.90
6899;BME280;3488;42.616;23.350;2023-05-22T07:39:05;64196.13;;;21.25;45.59
6899;BME280;3488;42.616;23.350;2023-05-22T07:41:34;64170.03;;;21.00;46.07
6899;BME280;3488;42.616;23.350;2023-05-22T07:44:01;64144.97;;;20.78;47.46
6899;BME280;3488;42.616;23.350;2023-05-22T07:46:28;64178.34;;;21.03;47.21
6899;BME280;3488;42.616;23.350;2023-05-22T07:48:56;64166.41;;;20.99;47.62
6899;BME280;3488;42.616;23.350;2023-05-22T07:51:23;64143.34;;;20.69;49.82
6899;BME280;3488;42.616;23.350;2023-05-22T07:53:50;64127.72;;;20.56;49.08
6899;BME280;3488;42.616;23.350;2023-05-22T07:56:17;64088.59;;;20.21;49.51
6899;BME280;3488;42.616;23.350;2023-05-22T07:58:45;64060.38;;;19.92;51.17
6899;BME280;3488;42.616;23.350;2023-05-22T08:01:13;64011.88;;;19.45;53.21
6899;BME280;3488;42.616;23.350;2023-05-22T08:03:41;64015.56;;;19.53;53.24
6899;BME280;3488;42.616;23.350;2023-05-22T08:06:12;64046.81;;;19.79;54.79
6899;BME280;3488;42.616;23.350;2023-05-22T08:08:40;64077.63;;;20.11;54.21
6899;BME280;3488;42.616;23.350;2023-05-22T08:11:08;64088.59;;;20.19;54.13
6899;BME280;3488;42.616;23.350;2023-05-22T08:13:36;64104.75;;;20.37;54.48
6899;BME280;3488;42.616;23.350;2023-05-22T08:16:03;64101.63;;;20.34;52.75
6899;BME280;3488;42.616;23.350;2023-05-22T08:18:31;64107.34;;;20.37;48.60
6899;BME280;3488;42.616;23.350;2023-05-22T08:20:58;64096.97;;;20.32;52.20
6899;BME280;3488;42.616;23.350;2023-05-22T08:23:27;64117.28;;;20.49;52.25
6899;BME280;3488;42.616;23.350;2023-05-22T08:25:54;64115.69;;;20.45;50.85
6899;BME280;3488;42.616;23.350;2023-05-22T08:28:21;64131.88;;;20.60;52.40
6899;BME280;3488;42.616;23.350;2023-05-22T08:30:49;64136.56;;;20.62;51.46
6899;BME280;3488;42.616;23.350;2023-05-22T08:33:16;64131.34;;;20.57;50.76
6899;BME280;3488;42.616;23.350;2023-05-22T08:35:44;64133.97;;;20.62;50.60
6899;BME280;3488;42.616;23.350;2023-05-22T08:38:11;64147.59;;;20.81;51.01
6899;BME280;3488;42.616;23.350;2023-05-22T08:40:41;64180.44;;;21.07;51.06
6899;BME280;3488;42.616;23.350;2023-05-22T08:43:12;64213.88;;;21.39;51.10
6899;BME280;3488;42.616;23.350;2023-05-22T08:45:40;64218.06;;;21.46;51.49
6899;BME280;3488;42.616;23.350;2023-05-22T08:48:11;64231.13;;;21.58;48.01
6899;BME280;3488;42.616;23.350;2023-05-22T08:50:40;64277.13;;;22.03;46.70
6899;BME280;3488;42.616;23.350;2023-05-22T08:53:10;64279.75;;;22.08;46.50
6899;BME280;3488;42.616;23.350;2023-05-22T08:55:40;64288.63;;;22.14;43.91
6899;BME280;3488;42.616;23.350;2023-05-22T08:58:10;64299.03;;;22.19;40.25
6899;BME280;3488;42.616;23.350;2023-05-22T09:00:38;64280.25;;;22.03;42.38
6899;BME280;3488;42.616;23.350;2023-05-22T09:03:06;64284.94;;;22.08;40.88
6899;BME280;3488;42.616;23.350;2023-05-22T09:05:36;64284.44;;;22.10;42.77
6899;BME280;3488;42.616;23.350;2023-05-22T09:08:06;64317.34;;;22.36;43.75
6899;BME280;3488;42.616;23.350;2023-05-22T09:10:34;64366.47;;;22.83;41.81
6899;BME280;3488;42.616;23.350;2023-05-22T09:13:05;64341.41;;;22.64;40.19
6899;BME280;3488;42.616;23.350;2023-05-22T09:15:34;64355.03;;;22.77;41.29
6899;BME280;3488;42.616;23.350;2023-05-22T09:18:04;64374.91;;;22.99;40.98
6899;BME280;3488;42.616;23.350;2023-05-22T09:20:37;64396.31;;;23.12;41.13
6899;BME280;3488;42.616;23.350;2023-05-22T09:23:10;64416.19;;;23.34;38.67
6899;BME280;3488;42.616;23.350;2023-05-22T09:25:40;64439.22;;;23.56;39.24
6899;BME280;3488;42.616;23.350;2023-05-22T09:28:09;64472.19;;;23.87;39.05
6899;BME280;3488;42.616;23.350;2023-05-22T09:30:36;64491.56;;;24.09;39.00
6899;BME280;3488;42.616;23.350;2023-05-22T09:33:04;64540.22;;;24.50;39.83
6899;BME280;3488;42.616;23.350;2023-05-22T09:35:34;64564.31;;;24.73;37.00
6899;BME280;3488;42.616;23.350;2023-05-22T09:38:03;64590.00;;;24.98;38.47
6899;BME280;3488;42.616;23.350;2023-05-22T09:40:32;64614.59;;;25.22;36.83
6899;BME280;3488;42.616;23.350;2023-05-22T09:43:00;64563.81;;;24.75;37.06
6899;BME280;3488;42.616;23.350;2023-05-22T09:45:33;64593.16;;;25.06;35.56
6899;BME280;3488;42.616;23.350;2023-05-22T09:48:00;64608.84;;;25.16;35.52
6899;BME280;3488;42.616;23.350;2023-05-22T09:50:27;64561.22;;;24.73;35.87
6899;BME280;3488;42.616;23.350;2023-05-22T09:52:55;64529.25;;;24.45;37.32
6899;BME280;3488;42.616;23.350;2023-05-22T09:55:23;64533.97;;;24.47;37.06
6899;BME280;3488;42.616;23.350;2023-05-22T09:57:51;64537.09;;;24.50;36.32
6899;BME280;3488;42.616;23.350;2023-05-22T10:00:20;64511.47;;;24.28;36.16
6899;BME280;3488;42.616;23.350;2023-05-22T10:02:53;64498.88;;;24.13;36.81
6899;BME280;3488;42.616;23.350;2023-05-22T10:05:29;64488.94;;;24.06;36.52
6899;BME280;3488;42.616;23.350;2023-05-22T10:08:01;64471.69;;;23.89;38.02
6899;BME280;3488;42.616;23.350;2023-05-22T10:10:38;64484.25;;;24.02;38.42
6899;BME280;3488;42.616;23.350;2023-05-22T10:13:07;64497.34;;;24.14;38.37
6899;BME280;3488;42.616;23.350;2023-05-22T10:15:34;64524.56;;;24.43;37.66
6899;BME280;3488;42.616;23.350;2023-05-22T10:18:04;64529.78;;;24.43;37.47
6899;BME280;3488;42.616;23.350;2023-05-22T10:20:34;64545.47;;;24.58;37.40
6899;BME280;3488;42.616;23.350;2023-05-22T10:23:02;64525.03;;;24.36;37.17
6899;BME280;3488;42.616;23.350;2023-05-22T10:25:31;64554.41;;;24.69;36.77
6899;BME280;3488;42.616;23.350;2023-05-22T10:27:58;64494.69;;;24.09;37.79
6899;BME280;3488;42.616;23.350;2023-05-22T10:30:31;64424.56;;;23.42;37.34
6899;BME280;3488;42.616;23.350;2023-05-22T10:33:08;64344.56;;;22.70;40.49
6899;BME280;3488;42.616;23.350;2023-05-22T10:35:44;64350.81;;;22.71;41.39
6899;BME280;3488;42.616;23.350;2023-05-22T10:38:30;64348.19;;;22.66;39.85
6899;BME280;3488;42.616;23.350;2023-05-22T10:41:03;64284.44;;;22.10;43.68
6899;BME280;3488;42.616;23.350;2023-05-22T10:43:30;64258.25;;;21.79;47.20
6899;BME280;3488;42.616;23.350;2023-05-22T10:46:02;64164.22;;;20.89;50.15
6899;BME280;3488;42.616;23.350;2023-05-22T10:48:38;64085.47;;;20.18;55.01
6899;BME280;3488;42.616;23.350;2023-05-22T10:51:06;64062.47;;;19.94;61.86
6899;BME280;3488;42.616;23.350;2023-05-22T10:53:34;64044.22;;;19.79;62.52
6899;BME280;3488;42.616;23.350;2023-05-22T10:56:09;64065.09;;;19.96;62.17
6899;BME280;3488;42.616;23.350;2023-05-22T10:58:41;64142.88;;;20.74;58.77
6899;BME280;3488;42.616;23.350;2023-05-22T11:01:12;64230.56;;;21.53;56.88
6899;BME280;3488;42.616;23.350;2023-05-22T11:03:58;64234.25;;;21.61;56.30
6899;BME280;3488;42.616;23.350;2023-05-22T11:06:37;64287.03;;;22.10;53.89
6899;BME280;3488;42.616;23.350;2023-05-22T11:09:19;64325.16;;;22.44;50.69
6899;BME280;3488;42.616;23.350;2023-05-22T11:12:11;64271.34;;;21.95;51.22
6899;BME280;3488;42.616;23.350;2023-05-22T11:14:38;64286.00;;;22.09;47.62
6899;BME280;3488;42.616;23.350;2023-05-22T11:17:11;64284.41;;;22.05;54.04
6899;BME280;3488;42.616;23.350;2023-05-22T11:19:40;64173.09;;;20.98;62.04
6899;BME280;3488;42.616;23.350;2023-05-22T11:22:08;64040.06;;;19.75;85.28
6899;BME280;3488;42.616;23.350;2023-05-22T11:24:36;63949.81;;;18.85;82.24
6899;BME280;3488;42.616;23.350;2023-05-22T11:27:05;63843.50;;;17.83;96.46
6899;BME280;3488;42.616;23.350;2023-05-22T11:29:32;63778.94;;;17.20;100.00
6899;BME280;3488;42.616;23.350;2023-05-22T11:32:00;63742.03;;;16.90;100.00
6899;BME280;3488;42.616;23.350;2023-05-22T11:34:28;63697.75;;;16.42;100.00
6899;BME280;3488;42.616;23.350;2023-05-22T11:36:59;63673.84;;;16.22;100.00
6899;BME280;3488;42.616;23.350;2023-05-22T11:39:27;63640.50;;;15.84;100.00
6899;BME280;3488;42.616;23.350;2023-05-22T11:41:54;63609.84;;;15.55;100.00
6899;BME280;3488;42.616;23.350;2023-05-22T11:44:21;63593.19;;;15.39;100.00
6899;BME280;3488;42.616;23.350;2023-05-22T11:46:48;63572.97;;;15.24;100.00
6899;BME280;3488;42.616;23.350;2023-05-22T11:49:15;63582.88;;;15.36;100.00
6899;BME280;3488;42.616;23.350;2023-05-22T11:51:42;63593.28;;;15.44;100.00
6899;BME280;3488;42.616;23.350;2023-05-22T11:54:11;63586.47;;;15.35;100.00
6899;BME280;3488;42.616;23.350;2023-05-22T11:56:39;63577.13;;;15.28;100.00
6899;BME280;3488;42.616;23.350;2023-05-22T11:59:07;63547.00;;;14.99;100.00
6899;BME280;3488;42.616;23.350;2023-05-22T12:01:34;63531.94;;;14.84;100.00
6899;BME280;3488;42.616;23.350;2023-05-22T12:04:03;63533.94;;;14.81;100.00
6899;BME280;3488;42.616;23.350;2023-05-22T12:06:31;63504.97;;;14.61;100.00
6899;BME280;3488;42.616;23.350;2023-05-22T12:08:59;63496.63;;;14.50;100.00
6899;BME280;3488;42.616;23.350;2023-05-22T12:11:34;63478.44;;;14.33;100.00
6899;BME280;3488;42.616;23.350;2023-05-22T12:14:02;63472.13;;;14.22;100.00
6899;BME280;3488;42.616;23.350;2023-05-22T12:16:33;63453.56;;;14.14;100.00
6899;BME280;3488;42.616;23.350;2023-05-22T12:19:03;63454.56;;;14.10;100.00
6899;BME280;3488;42.616;23.350;2023-05-22T12:21:31;63438.47;;;13.97;100.00
6899;BME280;3488;42.616;23.350;2023-05-22T12:24:02;63441.09;;;13.99;100.00
6899;BME280;3488;42.616;23.350;2023-05-22T12:26:31;63452.41;;;14.03;100.00
6899;BME280;3488;42.616;23.350;2023-05-22T12:28:59;63479.44;;;14.31;100.00
6899;BME280;3488;42.616;23.350;2023-05-22T12:31:27;63498.72;;;14.55;100.00
6899;BME280;3488;42.616;23.350;2023-05-22T12:33:55;63530.91;;;14.83;100.00
6899;BME280;3488;42.616;23.350;2023-05-22T12:36:31;63556.31;;;15.05;100.00
6899;BME280;3488;42.616;23.350;2023-05-22T12:38:58;63569.81;;;15.19;100.00
6899;BME280;3488;42.616;23.350;2023-05-22T12:41:25;63581.31;;;15.32;100.00
6899;BME280;3488;42.616;23.350;2023-05-22T12:43:53;63611.97;;;15.62;100.00
6899;BME280;3488;42.616;23.350;2023-05-22T12:46:20;63637.00;;;15.91;100.00
6899;BME280;3488;42.616;23.350;2023-05-22T12:48:48;63668.13;;;16.16;100.00
6899;BME280;3488;42.616;23.350;2023-05-22T12:51:15;63691.56;;;16.41;100.00
6899;BME280;3488;42.616;23.350;2023-05-22T12:53:42;63719.69;;;16.68;100.00
6899;BME280;3488;42.616;23.350;2023-05-22T12:56:09;63750.88;;;16.96;100.00
6899;BME280;3488;42.616;23.350;2023-05-22T12:58:36;63785.25;;;17.31;100.00
6899;BME280;3488;42.616;23.350;2023-05-22T13:01:06;63813.34;;;17.56;100.00
6899;BME280;3488;42.616;23.350;2023-05-22T13:03:34;63827.91;;;17.68;100.00
6899;BME280;3488;42.616;23.350;2023-05-22T13:06:02;63832.59;;;17.75;92.47
6899;BME280;3488;42.616;23.350;2023-05-22T13:08:29;63825.84;;;17.71;88.65
6899;BME280;3488;42.616;23.350;2023-05-22T13:10:56;63846.13;;;17.85;93.87
6899;BME280;3488;42.616;23.350;2023-05-22T13:13:23;63850.31;;;17.92;92.61
6899;BME280;3488;42.616;23.350;2023-05-22T13:15:51;63880.50;;;18.21;91.29
6899;BME280;3488;42.616;23.350;2023-05-22T13:18:20;63927.91;;;18.64;94.44